Terminal Aerodrome Forecast
Issued by NWS Grand Junction, CO

Home | Current Version | Previous Version | Text Only | Print | Product List | Glossary On
Versions: 1 2 3 4 5 6 7 8 9 10 11 12 13 14 15 16 17 18 19 20 21 22 23 24 25 26 27 28 29 30
000
FTUS45 KGJT 231737
TAFGJT
TAF
KGJT 231737Z 2318/2418 30010G16KT P6SM VCSH SCT010 BKN060
     FM232100 32011KT P6SM SCT020 BKN080 OVC100
     FM240200 34009KT P6SM SCT080
     FM240600 04008KT P6SM BKN100
     FM241100 VRB04KT P6SM OVC050=

USA.gov is the U.S. government's official web portal to all federal, state and local government web resources and services.